Terminal Aerodrome Forecast
Issued by NWS Cleveland, OH

Home | Current Version | Previous Version | Text Only | Print | Product List | Glossary Off
Versions: 1 2 3 4 5 6 7 8 9 10 11 12 13 14

000
FTUS41 KCLE 252339
TAFTOL
TAF
KTOL 252339Z 2600/2624 27010KT P6SM BKN080
     FM260200 25005KT P6SM SCT080
     FM260900 25005KT P6SM BKN060
     FM261400 25015G25KT P6SM BKN050
     FM261800 27015G25KT P6SM BKN070=

USA.gov is the U.S. government's official web portal to all federal, state and local government web resources and services.